createdAt,value
2023-04-05T00:00:44.858Z,23.73
2023-04-05T00:03:14.878Z,19.80
2023-04-05T00:05:42.728Z,16.60
2023-04-05T00:08:13.875Z,19.63
2023-04-05T00:10:41.714Z,27.90
2023-04-05T00:13:09.225Z,17.45
2023-04-05T00:15:36.530Z,21.42
2023-04-05T00:18:03.958Z,19.80
2023-04-05T00:20:31.317Z,26.42
2023-04-05T00:22:58.654Z,20.45
2023-04-05T00:25:26.412Z,19.38
2023-04-05T00:27:53.692Z,20.48
2023-04-05T00:30:21.485Z,15.52
2023-04-05T00:32:50.194Z,20.45
2023-04-05T00:35:18.020Z,17.90
2023-04-05T00:37:45.353Z,20.40
2023-04-05T00:40:12.886Z,22.88
2023-04-05T00:42:40.276Z,16.88
2023-04-05T00:45:08.105Z,23.38
2023-04-05T00:47:35.892Z,15.13
2023-04-05T00:50:03.858Z,22.17
2023-04-05T00:52:32.202Z,17.98
2023-04-05T00:54:59.814Z,25.48
2023-04-05T00:57:30.121Z,21.20
2023-04-05T01:00:00.050Z,17.52
2023-04-05T01:02:45.944Z,17.95
2023-04-05T01:05:40.376Z,26.50
2023-04-05T01:08:39.287Z,17.30
2023-04-05T01:11:08.335Z,16.65
2023-04-05T01:13:35.756Z,17.73
2023-04-05T01:16:03.339Z,26.30
2023-04-05T01:18:31.367Z,17.30
2023-04-05T01:21:39.071Z,19.70
2023-04-05T01:24:23.040Z,22.50
2023-04-05T01:27:14.403Z,29.05
2023-04-05T01:29:49.452Z,29.42
2023-04-05T01:32:25.678Z,23.17
2023-04-05T01:35:16.747Z,30.95
2023-04-05T01:37:48.789Z,23.17
2023-04-05T01:40:16.796Z,29.98
2023-04-05T01:42:47.983Z,26.67
2023-04-05T01:45:15.774Z,37.50
2023-04-05T01:47:43.097Z,19.08
2023-04-05T01:50:10.807Z,27.73
2023-04-05T01:52:38.104Z,16.92
2023-04-05T01:55:06.114Z,15.65
2023-04-05T01:57:33.902Z,28.23
2023-04-05T02:00:01.840Z,15.60
2023-04-05T02:02:29.390Z,22.80
2023-04-05T02:04:56.729Z,19.58
2023-04-05T02:07:25.802Z,21.45
2023-04-05T02:09:53.153Z,17.80
2023-04-05T02:12:20.741Z,19.45
2023-04-05T02:14:48.213Z,21.75
2023-04-05T02:17:17.823Z,27.27
2023-04-05T02:19:46.962Z,25.83
2023-04-05T02:22:14.708Z,25.50
2023-04-05T02:24:41.994Z,23.63
2023-04-05T02:27:09.319Z,19.70
2023-04-05T02:29:36.804Z,20.73
2023-04-05T02:32:04.249Z,23.85
2023-04-05T02:34:33.684Z,19.92
2023-04-05T02:37:01.903Z,22.55
2023-04-05T02:39:29.693Z,23.00
2023-04-05T02:41:57.485Z,16.98
2023-04-05T02:44:25.269Z,17.35
2023-04-05T02:46:54.332Z,18.63
2023-04-05T02:49:27.091Z,18.13
2023-04-05T02:51:56.856Z,23.45
2023-04-05T02:54:24.193Z,22.30
2023-04-05T02:56:57.841Z,20.98
2023-04-05T02:59:28.782Z,19.48
2023-04-05T03:01:57.366Z,21.88
2023-04-05T03:04:27.964Z,20.17
2023-04-05T03:07:02.885Z,16.00
2023-04-05T03:09:33.487Z,22.33
2023-04-05T03:12:05.878Z,16.40
2023-04-05T03:14:37.102Z,28.00
2023-04-05T03:17:04.934Z,18.45
2023-04-05T03:19:37.660Z,19.17
2023-04-05T03:22:14.230Z,14.73
2023-04-05T03:24:42.665Z,21.60
2023-04-05T03:27:13.181Z,19.65
2023-04-05T03:29:55.983Z,16.65
2023-04-05T03:32:23.567Z,21.42
2023-04-05T03:34:59.217Z,18.25
2023-04-05T03:37:26.944Z,23.85
2023-04-05T03:40:01.178Z,32.75
2023-04-05T03:42:28.645Z,21.70
2023-04-05T03:44:56.543Z,27.35
2023-04-05T03:47:23.945Z,31.48
2023-04-05T03:49:52.887Z,21.63
2023-04-05T03:52:20.694Z,25.38
2023-04-05T03:54:47.923Z,25.38
2023-04-05T03:57:21.342Z,25.73
2023-04-05T03:59:50.706Z,26.50
2023-04-05T04:02:19.081Z,26.08
2023-04-05T04:04:47.252Z,33.33
2023-04-05T04:07:15.562Z,24.15
2023-04-05T04:09:43.304Z,24.90
2023-04-05T04:12:13.053Z,27.92
2023-04-05T04:14:49.958Z,25.50
2023-04-05T04:17:44.259Z,26.70
2023-04-05T04:20:31.682Z,25.30
2023-04-05T04:23:14.457Z,27.60
2023-04-05T04:25:56.739Z,24.97
2023-04-05T04:28:48.759Z,23.90
2023-04-05T04:31:49.735Z,27.40
2023-04-05T04:34:44.592Z,28.40
2023-04-05T04:37:31.063Z,36.63
2023-04-05T04:40:18.309Z,33.58
2023-04-05T04:43:00.187Z,27.58
2023-04-05T04:45:47.092Z,33.38
2023-04-05T04:48:28.980Z,35.80
2023-04-05T04:51:11.745Z,28.80
2023-04-05T04:53:39.011Z,32.92
2023-04-05T04:56:07.730Z,38.15
2023-04-05T04:58:35.457Z,30.15
2023-04-05T05:01:10.194Z,30.48
2023-04-05T05:03:41.308Z,42.40
2023-04-05T05:06:08.719Z,34.83
2023-04-05T05:08:37.349Z,35.75
2023-04-05T05:11:07.632Z,39.30
2023-04-05T05:13:35.040Z,27.95
2023-04-05T05:16:04.349Z,34.15
2023-04-05T05:18:31.686Z,30.77
2023-04-05T05:20:58.949Z,38.53
2023-04-05T05:23:26.726Z,29.08
2023-04-05T05:26:00.385Z,39.65
2023-04-05T05:28:27.863Z,37.47
2023-04-05T05:30:55.925Z,34.95
2023-04-05T05:33:23.422Z,34.00
2023-04-05T05:35:51.610Z,31.20
2023-04-05T05:38:19.003Z,32.40
2023-04-05T05:40:46.552Z,38.97
2023-04-05T05:43:14.081Z,37.45
2023-04-05T05:45:41.569Z,28.98
2023-04-05T05:48:09.270Z,28.23
2023-04-05T05:50:36.522Z,29.70
2023-04-05T05:53:03.842Z,31.40
2023-04-05T05:55:31.371Z,37.17
2023-04-05T05:57:59.821Z,30.45
2023-04-05T06:00:27.295Z,36.00
2023-04-05T06:02:54.667Z,38.47
2023-04-05T06:05:22.388Z,35.10
2023-04-05T06:07:49.551Z,30.92
2023-04-05T06:10:18.233Z,30.80
2023-04-05T06:12:46.046Z,29.40
2023-04-05T06:15:13.390Z,21.63
2023-04-05T06:17:42.656Z,25.58
2023-04-05T06:20:13.384Z,24.50
2023-04-05T06:22:41.326Z,27.77
2023-04-05T06:25:10.143Z,21.02
2023-04-05T06:27:37.474Z,19.20
2023-04-05T06:30:05.383Z,18.25
2023-04-05T06:32:32.723Z,19.70
2023-04-05T06:35:02.731Z,31.00
2023-04-05T06:37:30.923Z,22.23
2023-04-05T06:39:59.402Z,20.75
2023-04-05T06:42:28.064Z,26.27
2023-04-05T06:45:00.661Z,27.58
2023-04-05T06:47:28.052Z,28.75
2023-04-05T06:49:55.986Z,24.02
2023-04-05T06:52:23.194Z,27.80
2023-04-05T06:54:50.597Z,27.17
2023-04-05T06:57:18.782Z,23.92
2023-04-05T06:59:46.473Z,26.23
2023-04-05T07:02:13.786Z,23.85
2023-04-05T07:04:41.331Z,18.98
2023-04-05T07:07:08.735Z,20.55
2023-04-05T07:09:39.390Z,28.95
2023-04-05T07:12:08.342Z,18.60
2023-04-05T07:14:37.852Z,21.88
2023-04-05T07:17:06.475Z,18.10
2023-04-05T07:19:34.173Z,22.98
2023-04-05T07:22:01.617Z,19.00
2023-04-05T07:24:29.091Z,18.65
2023-04-05T07:26:57.173Z,20.55
2023-04-05T07:29:25.257Z,17.17
2023-04-05T07:31:52.489Z,24.10
2023-04-05T07:34:19.894Z,23.00
2023-04-05T07:36:47.256Z,30.10
2023-04-05T07:39:14.543Z,20.52
2023-04-05T07:41:43.294Z,27.85
2023-04-05T07:44:10.863Z,25.00
2023-04-05T07:46:39.593Z,30.23
2023-04-05T07:49:07.510Z,20.38
2023-04-05T07:51:36.273Z,24.13
2023-04-05T07:54:05.914Z,15.68
2023-04-05T07:56:33.205Z,19.25
2023-04-05T07:59:01.555Z,19.48
2023-04-05T08:01:29.303Z,20.05
2023-04-05T08:03:58.024Z,29.90
2023-04-05T08:06:27.330Z,22.15
2023-04-05T08:08:54.789Z,47.00
2023-04-05T08:11:22.166Z,23.60
2023-04-05T08:13:49.960Z,24.17
2023-04-05T08:16:17.403Z,19.38
2023-04-05T08:18:44.816Z,14.32
2023-04-05T08:21:13.516Z,19.63
2023-04-05T08:23:40.935Z,22.15
2023-04-05T08:26:08.355Z,15.55
2023-04-05T08:28:35.668Z,14.30
2023-04-05T08:31:03.358Z,19.92
2023-04-05T08:33:31.266Z,18.13
2023-04-05T08:36:04.128Z,18.80
2023-04-05T08:38:31.500Z,15.00
2023-04-05T08:41:19.830Z,17.65
2023-04-05T08:43:57.193Z,16.00
2023-04-05T08:46:25.740Z,21.15
2023-04-05T08:48:53.349Z,23.30
2023-04-05T08:51:26.129Z,15.43
2023-04-05T08:53:54.077Z,12.75
2023-04-05T08:56:26.063Z,18.92
2023-04-05T08:59:01.114Z,23.75
2023-04-05T09:01:30.938Z,14.93
2023-04-05T09:04:06.626Z,11.55
2023-04-05T09:06:36.699Z,24.67
2023-04-05T09:09:08.362Z,12.10
2023-04-05T09:11:36.355Z,13.25
2023-04-05T09:14:07.342Z,16.73
2023-04-05T09:16:38.615Z,12.32
2023-04-05T09:19:06.687Z,16.90
2023-04-05T09:22:00.579Z,16.00
2023-04-05T09:24:42.491Z,17.60
2023-04-05T09:27:15.058Z,16.00
2023-04-05T09:29:48.449Z,8.32
2023-04-05T09:32:18.332Z,8.35
2023-04-05T09:34:45.961Z,13.10
2023-04-05T09:37:22.355Z,19.42
2023-04-05T09:39:52.172Z,9.65
2023-04-05T09:42:23.326Z,11.95
2023-04-05T09:44:58.008Z,16.90
2023-04-05T09:50:21.783Z,17.37
2023-04-05T09:52:50.075Z,14.85
2023-04-05T09:55:28.425Z,11.20
2023-04-05T09:57:56.100Z,13.82
2023-04-05T10:00:23.838Z,18.98
2023-04-05T10:02:56.526Z,12.68
2023-04-05T10:05:27.260Z,13.43
2023-04-05T10:07:56.389Z,10.38
2023-04-05T10:10:26.654Z,18.25
2023-04-05T10:12:54.324Z,18.88
2023-04-05T10:15:26.023Z,13.70
2023-04-05T10:18:13.255Z,10.77
2023-04-05T10:20:43.036Z,15.98
2023-04-05T10:23:22.336Z,11.15
2023-04-05T10:25:53.708Z,11.20
2023-04-05T10:28:36.270Z,14.23
2023-04-05T10:31:27.003Z,11.50
2023-04-05T10:37:01.652Z,11.30
2023-04-05T10:39:45.344Z,11.15
2023-04-05T10:42:18.936Z,11.43
2023-04-05T10:45:02.472Z,9.32
2023-04-05T10:50:24.014Z,15.10
2023-04-05T10:53:01.982Z,15.55
2023-04-05T10:55:31.892Z,11.23
2023-04-05T10:58:10.126Z,12.68
2023-04-05T11:00:38.112Z,9.27
2023-04-05T11:03:09.198Z,12.07
2023-04-05T11:05:38.311Z,14.88
2023-04-05T11:08:07.680Z,14.60
2023-04-05T11:10:37.951Z,12.82
2023-04-05T11:13:07.587Z,12.25
2023-04-05T11:15:36.259Z,7.43
2023-04-05T11:18:22.664Z,18.00
2023-04-05T11:20:55.500Z,12.25
2023-04-05T11:23:25.198Z,11.23
2023-04-05T11:25:55.680Z,11.07
2023-04-05T11:28:27.161Z,11.52
2023-04-05T11:31:03.560Z,12.43
2023-04-05T11:33:57.738Z,7.03
2023-04-05T11:36:57.039Z,16.55
2023-04-05T11:39:25.217Z,10.20
2023-04-05T11:42:05.883Z,15.30
2023-04-05T11:44:44.037Z,11.18
2023-04-05T11:47:12.510Z,14.20
2023-04-05T11:49:42.038Z,16.65
2023-04-05T11:52:14.704Z,16.65
2023-04-05T11:54:46.686Z,10.15
2023-04-05T11:57:19.715Z,13.05
2023-04-05T11:59:49.440Z,12.35
2023-04-05T12:02:17.656Z,16.52
2023-04-05T12:04:45.314Z,13.52
2023-04-05T12:07:16.944Z,15.48
2023-04-05T12:10:08.809Z,12.90
2023-04-05T12:12:38.866Z,12.70
2023-04-05T12:15:08.726Z,13.15
2023-04-05T12:17:46.183Z,16.42
2023-04-05T12:20:15.948Z,8.13
2023-04-05T12:22:44.943Z,8.32
2023-04-05T12:25:13.157Z,10.18
2023-04-05T12:27:41.697Z,12.73
2023-04-05T12:30:18.885Z,11.55
2023-04-05T12:32:50.451Z,17.25
2023-04-05T12:35:32.242Z,9.48
2023-04-05T12:38:09.309Z,10.38
2023-04-05T12:40:40.661Z,5.72
2023-04-05T12:43:11.884Z,11.32
2023-04-05T12:45:43.739Z,10.60
2023-04-05T12:48:22.102Z,8.55
2023-04-05T12:50:54.743Z,11.30
2023-04-05T12:53:25.571Z,14.68
2023-04-05T12:55:55.202Z,7.18
2023-04-05T12:58:41.335Z,11.05
2023-04-05T13:01:10.595Z,5.93
2023-04-05T13:03:38.295Z,7.53
2023-04-05T13:06:06.009Z,9.15
2023-04-05T13:08:33.302Z,10.70
2023-04-05T13:11:01.472Z,16.77
2023-04-05T13:13:29.012Z,10.52
2023-04-05T13:15:56.414Z,33.40
2023-04-05T13:18:27.027Z,11.20
2023-04-05T13:20:54.418Z,11.65
2023-04-05T13:23:21.780Z,10.98
2023-04-05T13:25:49.264Z,10.88
2023-04-05T13:28:16.730Z,11.02
2023-04-05T13:30:44.195Z,7.55
2023-04-05T13:33:11.647Z,11.18
2023-04-05T13:35:39.352Z,14.07
2023-04-05T13:38:07.526Z,12.82
2023-04-05T13:40:35.771Z,12.40
2023-04-05T13:43:03.137Z,7.35
2023-04-05T13:45:34.317Z,15.35
2023-04-05T13:48:04.644Z,7.90
2023-04-05T13:50:32.467Z,9.48
2023-04-05T13:53:00.042Z,12.52
2023-04-05T13:55:27.560Z,11.23
2023-04-05T13:57:55.304Z,11.15
2023-04-05T14:00:22.840Z,12.50
2023-04-05T14:02:52.492Z,11.95
2023-04-05T14:05:20.325Z,15.95
2023-04-05T14:07:53.650Z,15.10
2023-04-05T14:10:23.936Z,8.73
2023-04-05T14:12:51.283Z,14.80
2023-04-05T14:15:18.834Z,12.68
2023-04-05T14:17:47.469Z,17.50
2023-04-05T14:20:15.132Z,13.95
2023-04-05T14:22:42.718Z,18.30
2023-04-05T14:25:10.380Z,13.43
2023-04-05T14:27:42.360Z,20.80
2023-04-05T14:30:11.293Z,10.40
2023-04-05T14:32:39.200Z,16.58
2023-04-05T14:35:07.293Z,16.10
2023-04-05T14:37:36.026Z,10.45
2023-04-05T14:40:03.858Z,16.48
2023-04-05T14:42:41.013Z,14.38
2023-04-05T14:45:16.541Z,11.63
2023-04-05T14:47:44.136Z,13.60
2023-04-05T14:50:11.732Z,13.25
2023-04-05T14:52:40.400Z,19.15
2023-04-05T14:55:08.238Z,16.25
2023-04-05T14:57:35.934Z,8.88
2023-04-05T15:00:04.112Z,19.10
2023-04-05T15:02:31.931Z,14.55
2023-04-05T15:05:00.849Z,11.02
2023-04-05T15:07:28.857Z,10.95
2023-04-05T15:09:56.637Z,17.02
2023-04-05T15:12:29.777Z,15.90
2023-04-05T15:14:58.050Z,12.90
2023-04-05T15:17:25.762Z,14.35
2023-04-05T15:19:53.388Z,14.00
2023-04-05T15:22:30.052Z,11.35
2023-04-05T15:25:01.789Z,14.82
2023-04-05T15:27:30.516Z,14.52
2023-04-05T15:30:11.453Z,16.88
2023-04-05T15:32:45.948Z,17.38
2023-04-05T15:35:24.293Z,16.92
2023-04-05T15:37:51.982Z,12.38
2023-04-05T15:40:19.720Z,12.45
2023-04-05T15:42:50.799Z,16.33
2023-04-05T15:45:24.720Z,13.38
2023-04-05T15:47:55.610Z,11.45
2023-04-05T15:50:23.808Z,12.80
2023-04-05T15:53:03.457Z,9.00
2023-04-05T15:55:31.078Z,11.15
2023-04-05T15:57:58.953Z,16.60
2023-04-05T16:00:28.576Z,11.50
2023-04-05T16:03:00.561Z,9.52
2023-04-05T16:05:47.587Z,9.55
2023-04-05T16:08:25.094Z,17.55
2023-04-05T16:10:52.789Z,7.40
2023-04-05T16:13:39.782Z,12.93
2023-04-05T16:16:09.614Z,16.30
2023-04-05T16:18:38.417Z,13.15
2023-04-05T16:21:27.506Z,15.50
2023-04-05T16:23:56.926Z,16.35
2023-04-05T16:26:24.591Z,15.82
2023-04-05T16:29:04.411Z,10.50
2023-04-05T16:31:32.847Z,25.83
2023-04-05T16:34:00.436Z,9.93
2023-04-05T16:36:28.724Z,21.50
2023-04-05T16:38:56.272Z,19.13
2023-04-05T16:41:24.302Z,10.48
2023-04-05T16:43:52.358Z,14.80
2023-04-05T16:46:23.563Z,11.77
2023-04-05T16:48:51.237Z,14.82
2023-04-05T16:51:18.847Z,19.85
2023-04-05T16:53:46.755Z,12.60
2023-04-05T16:56:14.092Z,35.95
2023-04-05T16:58:41.532Z,12.45
2023-04-05T17:01:12.061Z,14.57
2023-04-05T17:03:39.536Z,15.70
2023-04-05T17:06:22.371Z,12.23
2023-04-05T17:08:50.219Z,17.48
2023-04-05T17:11:17.600Z,23.90
2023-04-05T17:13:46.963Z,13.57
2023-04-05T17:16:14.735Z,17.38
2023-04-05T17:18:42.272Z,12.32
2023-04-05T17:21:09.936Z,11.68
2023-04-05T17:23:37.721Z,17.33
2023-04-05T17:26:05.103Z,21.58
2023-04-05T17:28:33.449Z,18.98
2023-04-05T17:31:01.263Z,18.38
2023-04-05T17:33:29.022Z,18.40
2023-04-05T17:35:58.062Z,20.33
2023-04-05T17:38:27.786Z,27.63
2023-04-05T17:40:57.303Z,28.10
2023-04-05T17:43:24.916Z,21.10
2023-04-05T17:45:52.580Z,15.90
2023-04-05T17:48:31.772Z,18.02
2023-04-05T17:51:04.615Z,25.00
2023-04-05T17:53:33.077Z,18.52
2023-04-05T17:56:01.785Z,22.95
2023-04-05T17:58:30.278Z,21.40
2023-04-05T18:00:57.938Z,23.40
2023-04-05T18:03:27.580Z,16.95
2023-04-05T18:05:56.318Z,19.60
2023-04-05T18:08:24.502Z,24.83
2023-04-05T18:10:59.528Z,23.42
2023-04-05T18:13:28.074Z,21.23
2023-04-05T18:15:56.802Z,23.92
2023-04-05T18:18:24.874Z,29.60
2023-04-05T18:20:53.498Z,26.50
2023-04-05T18:23:25.379Z,27.23
2023-04-05T18:25:53.726Z,32.28
2023-04-05T18:28:23.474Z,24.67
2023-04-05T18:30:51.647Z,27.17
2023-04-05T18:33:19.100Z,30.25
2023-04-05T18:35:50.583Z,21.88
2023-04-05T18:38:18.371Z,27.90
2023-04-05T18:40:46.831Z,31.17
2023-04-05T18:43:14.284Z,32.63
2023-04-05T18:45:41.678Z,33.30
2023-04-05T18:48:10.605Z,29.92
2023-04-05T18:50:38.034Z,25.73
2023-04-05T18:53:06.902Z,33.60
2023-04-05T18:55:34.812Z,29.70
2023-04-05T18:58:02.919Z,28.50
2023-04-05T19:00:30.301Z,30.17
2023-04-05T19:02:57.814Z,40.78
2023-04-05T19:05:26.365Z,28.98
2023-04-05T19:07:53.818Z,34.30
2023-04-05T19:10:21.416Z,29.40
2023-04-05T19:12:48.933Z,35.85
2023-04-05T19:15:17.081Z,35.42
2023-04-05T19:17:44.776Z,37.78
2023-04-05T19:20:13.296Z,35.92
2023-04-05T19:22:40.956Z,42.95
2023-04-05T19:25:08.489Z,34.28
2023-04-05T19:27:36.697Z,31.60
2023-04-05T19:30:06.138Z,43.92
2023-04-05T19:32:33.511Z,40.63
2023-04-05T19:35:01.086Z,32.20
2023-04-05T19:37:29.964Z,40.08
2023-04-05T19:39:58.759Z,40.30
2023-04-05T19:42:26.270Z,43.40
2023-04-05T19:44:57.086Z,46.47
2023-04-05T19:47:25.332Z,50.85
2023-04-05T19:49:56.191Z,39.65
2023-04-05T19:52:39.497Z,41.20
2023-04-05T19:55:33.042Z,49.97
2023-04-05T19:58:02.846Z,52.55
2023-04-05T20:00:51.950Z,39.95
2023-04-05T20:03:30.665Z,40.90
2023-04-05T20:06:13.574Z,40.35
2023-04-05T20:08:42.961Z,44.45
2023-04-05T20:11:18.812Z,39.95
2023-04-05T20:13:50.647Z,56.88
2023-04-05T20:16:22.763Z,42.78
2023-04-05T20:18:50.189Z,45.28
2023-04-05T20:21:19.088Z,41.67
2023-04-05T20:23:47.920Z,42.97
2023-04-05T20:26:17.105Z,44.92
2023-04-05T20:28:55.323Z,52.20
2023-04-05T20:31:25.899Z,39.17
2023-04-05T20:33:54.144Z,46.65
2023-04-05T20:36:26.149Z,41.95
2023-04-05T20:38:53.471Z,46.72
2023-04-05T20:41:22.413Z,58.90
2023-04-05T20:43:49.745Z,53.65
2023-04-05T20:46:17.558Z,56.47
2023-04-05T20:48:46.664Z,49.85
2023-04-05T20:51:14.898Z,46.55
2023-04-05T20:53:45.935Z,51.05
2023-04-05T20:56:13.373Z,50.92
2023-04-05T20:58:41.481Z,54.72
2023-04-05T21:01:09.956Z,53.95
2023-04-05T21:03:40.711Z,66.85
2023-04-05T21:06:09.474Z,57.53
2023-04-05T21:08:40.813Z,58.30
2023-04-05T21:11:10.785Z,61.42
2023-04-05T21:13:39.755Z,63.00
2023-04-05T21:16:09.840Z,64.20
2023-04-05T21:18:37.360Z,62.03
2023-04-05T21:21:07.251Z,65.93
2023-04-05T21:23:34.721Z,64.38
2023-04-05T21:26:04.120Z,65.50
2023-04-05T21:28:34.785Z,61.67
2023-04-05T21:31:02.117Z,64.93
2023-04-05T21:33:29.607Z,65.05
2023-04-05T21:35:57.848Z,71.07
2023-04-05T21:38:25.231Z,60.05
2023-04-05T21:40:53.113Z,75.90
2023-04-05T21:43:21.909Z,67.95
2023-04-05T21:45:49.255Z,70.18
2023-04-05T21:48:16.566Z,66.57
2023-04-05T21:50:46.976Z,61.67
2023-04-05T21:53:14.680Z,65.43
2023-04-05T21:55:42.063Z,65.22
2023-04-05T21:58:09.383Z,76.55
2023-04-05T22:00:36.772Z,63.08
2023-04-05T22:03:04.498Z,78.70
2023-04-05T22:05:37.927Z,80.25
2023-04-05T22:08:07.317Z,68.50
2023-04-05T22:10:35.731Z,79.85
2023-04-05T22:13:03.084Z,76.57
2023-04-05T22:15:33.645Z,85.95
2023-04-05T22:18:01.828Z,78.30
2023-04-05T22:20:29.180Z,76.43
2023-04-05T22:22:59.074Z,83.05
2023-04-05T22:25:26.641Z,79.53
2023-04-05T22:28:00.106Z,78.88
2023-04-05T22:30:28.761Z,84.43
2023-04-05T22:32:56.883Z,83.22
2023-04-05T22:35:24.354Z,73.50
2023-04-05T22:37:55.155Z,80.85
2023-04-05T22:40:26.949Z,82.55
2023-04-05T22:42:54.756Z,72.10
2023-04-05T22:45:22.402Z,61.72
2023-04-05T22:47:49.755Z,66.50
2023-04-05T22:50:17.564Z,69.03
2023-04-05T22:52:50.353Z,71.70
2023-04-05T22:55:17.870Z,69.45
2023-04-05T22:57:45.266Z,66.57
2023-04-05T23:00:13.216Z,68.18
2023-04-05T23:02:42.842Z,74.05
2023-04-05T23:05:16.337Z,62.42
2023-04-05T23:07:43.836Z,65.78
2023-04-05T23:10:11.619Z,66.45
2023-04-05T23:12:40.992Z,57.88
2023-04-05T23:15:14.710Z,59.00
2023-04-05T23:17:42.352Z,71.85
2023-04-05T23:20:10.476Z,52.58
2023-04-05T23:22:37.753Z,52.70
2023-04-05T23:25:06.898Z,46.78
2023-04-05T23:27:34.307Z,43.60
2023-04-05T23:30:01.729Z,46.67
2023-04-05T23:32:29.159Z,46.42
2023-04-05T23:34:58.694Z,47.78
2023-04-05T23:37:26.157Z,41.78
2023-04-05T23:39:53.558Z,37.88
2023-04-05T23:42:21.353Z,35.75
2023-04-05T23:44:48.721Z,38.83
2023-04-05T23:47:16.212Z,41.22
2023-04-05T23:49:43.490Z,32.58
2023-04-05T23:52:10.819Z,44.28
2023-04-05T23:54:38.784Z,32.10
2023-04-05T23:57:06.387Z,32.63
2023-04-05T23:59:33.936Z,33.25
